Detalii statie AGROKAISER STANESTI [0000198D]

Toti senzorii

Date Temperatura solului [C]Precipitatii [mm]Voltaj baterie [mV]Leaf Wetness [Min]HC Air temperature [C]HC Relative humidity [%]Punctul de roua [C]
medieminmaxsumaultimatimpmedieminmaxmediemediemin
2019-06-15 18:00:00 0 6952 27.94 25.96 30.58 98.66 27.6 25.9
2019-06-15 19:00:00 0 6874 25.01 23.86 25.92 100 24.9 23.8
2019-06-15 20:00:00 0 6738 21.8 19.82 23.64 100 21.7 19.8
2019-06-15 21:00:00 0 6728 19.72 19.54 19.98 100 19.6 19.5
2019-06-15 22:00:00 0 6698 19.68 19.52 19.8 100 19.6 19.5
2019-06-15 23:00:00 0 6698 19.42 19.28 19.59 100 19.3 19.2
2019-06-16 00:00:00 0 6678 19.22 19.05 19.42 100 19.1 19
2019-06-16 01:00:00 0 6668 18.97 18.83 19.08 100 18.9 18.8
2019-06-16 02:00:00 0 6668 19.03 18.93 19.12 100 19 18.9
2019-06-16 03:00:00 0 6668 18.9 18.7 19.08 100 18.8 18.7
2019-06-16 04:00:00 0 6660 18.47 18.29 18.64 100 18.4 18.2
2019-06-16 05:00:00 0 6650 17.95 17.65 18.36 100 17.9 17.6
2019-06-16 06:00:00 0 6708 18.39 17.83 19.03 100 18.3 17.8
2019-06-16 07:00:00 0 7176 20.14 19.22 20.95 100 20.1 19.2
2019-06-16 08:00:00 0 7264 22.18 21.19 22.9 100 22.1 21.1
2019-06-16 09:00:00 0 7186 25.02 23.22 25.72 100 24.9 23.2
2019-06-16 10:00:00 0 7264 26.38 25.42 27.27 100 26.3 25.4
2019-06-16 11:00:00 0 7264 27.98 27.11 29.13 99.37 27.8 27.1
2019-06-16 12:00:00 0 7060 29.29 28.49 30.17 90.23 27.3 26.2
2019-06-16 13:00:00 0 7050 29.5 29.1 29.81 89.54 27.4 26.9
2019-06-16 14:00:00 0 7020 29.94 29.57 30.32 88.83 27.7 26.9
2019-06-16 15:00:00 0 7040 30.51 29.96 30.81 87.38 28 27.5
2019-06-16 16:00:00 0 7236 30.33 30.01 30.63 87.72 27.9 26.8
2019-06-16 17:00:00 0 6992 29.84 25.91 31.38 88.9 27.6 25.2
2019-06-16 18:00:00 0 6834 26.28 25.51 27.33 99.82 26.1 25.2
2019-06-16 19:00:00 0 6766 25.56 25.05 26.66 100 25.5 25
2019-06-16 20:00:00 0 6708 24.28 23.48 25.23 100 24.2 23.4
2019-06-16 21:00:00 0 6688 23.35 22.92 24.2 100 23.3 22.9
2019-06-16 22:00:00 0 6688 22.88 22.56 23.49 100 22.8 22.5
2019-06-16 23:00:00 0 6668 22.31 22.09 22.69 100 22.2 22
2019-06-17 00:00:00 0 6668 21.53 20.54 22.43 100 21.5 20.5
2019-06-17 01:00:00 0 6668 20.49 20.09 21.09 100 20.4 20
2019-06-17 02:00:00 0 6668 19.61 19.19 19.98 100 19.5 19.1
2019-06-17 03:00:00 0 6660 18.87 18.48 19.16 100 18.8 18.4
2019-06-17 04:00:00 0 6650 18.75 18.45 19.28 100 18.6 18.4
2019-06-17 05:00:00 0 6660 18.2 17.9 18.52 100 18.1 17.9
2019-06-17 06:00:00 0 6708 18.6 18.01 19.49 100 18.5 18
2019-06-17 07:00:00 0 7254 21.3 19.75 22.7 100 21.2 19.7
2019-06-17 08:00:00 0 7254 24.66 22.85 26.06 100 24.6 22.8
2019-06-17 09:00:00 0 7246 26.81 25.66 28.53 100 26.7 25.6
2019-06-17 10:00:00 0 7216 27.79 26.91 29.22 99.99 27.7 26.9
2019-06-17 11:00:00 0 7254 29 28.36 29.51 99.34 28.7 28.1
2019-06-17 12:00:00 0 7236 30.06 29.71 30.42 98.21 29.6 29.1
2019-06-17 13:00:00 0 7060 30.29 29.98 30.5 98.45 29.9 29.4
2019-06-17 14:00:00 0 7236 31.05 30.22 31.66 93.59 29.7 29.4
2019-06-17 15:00:00 0 7030 31.72 30.93 32.03 90.89 29.9 29.4
2019-06-17 16:00:00 0 6922 26.63 18.55 31.81 95.68 25.7 18.5
2019-06-17 17:00:00 0 6776 19.71 18.97 20.15 100 19.6 18.9